Aegean Pride — ELXK8 — position and weather

sailwx.info

Track history (hours):
 
Tides and Currents Weather Stations Pressure Air Temp Water Temp Dewpoint Dewpoint Depression Visibility Wind Speed Wind Dir Waves Ship Positions

Aegean Pride

Last reported at 2016-Mar-25 07:31 UTC. Time now 2016-Apr-29 08:16 UTC.
Position N 02°30' E 101°36'.
Warning: this ship's position is 35 days out of date.

Length 244 m; draft 8.2 m.

Type: Ship. MMSI: 636011186.

Date/timePositionNaut miles runAvg speedWind from/ knotsBaromVisibWave heightAir tempDewpointWater temp
2016-Mar-25 07:31N 02°30' E 101°36'1614.6
2016-Mar-25 06:25N 02°20' E 101°49'2614.1
2016-Mar-25 04:33N 02°03' E 102°09'1312.5
2016-Mar-25 03:31N 01°56' E 102°20'1111.6
2016-Mar-25 02:33N 01°51' E 102°30'1111.1
2016-Mar-25 01:32N 01°46' E 102°40'7512.5
2016-Mar-24 19:33N 01°09' E 103°45'1111.4
2016-Mar-24 18:33N 01°14' E 103°55'9 9.2
2016-Mar-24 17:33N 01°16' E 104°04'  
2016-Mar-22 04:33N 01°15' E 104°03'9 8.8
2016-Mar-22 03:33N 01°15' E 103°54'1 0.6
2016-Mar-22 02:25N 01°15' E 103°54'0 0.1
2016-Mar-22 01:25N 01°15' E 103°54'0 0.0
2016-Mar-22 00:19N 01°15' E 103°54'0 0.0
2016-Mar-21 23:28N 01°15' E 103°54'0 0.0
2016-Mar-21 22:31N 01°15' E 103°54'0 0.1
2016-Mar-21 21:28N 01°15' E 103°54'0 0.0
2016-Mar-21 20:31N 01°15' E 103°54'0 0.0
2016-Mar-21 19:19N 01°15' E 103°54'0 0.1
2016-Mar-21 18:31N 01°15' E 103°54'0 0.0
2016-Mar-21 17:31N 01°15' E 103°54'0 0.0
2016-Mar-21 15:07N 01°15' E 103°54'0 0.0
2016-Mar-21 14:25N 01°15' E 103°54'0 0.0
2016-Mar-21 11:19N 01°15' E 103°54'0 0.2
2016-Mar-21 10:25N 01°15' E 103°54'0 0.1
2016-Mar-21 08:04N 01°16' E 103°54'0 0.0
2016-Mar-21 06:31N 01°16' E 103°54'0 0.0
2016-Mar-21 03:19N 01°15' E 103°54'0 0.1
2016-Mar-21 02:25N 01°15' E 103°54'0 0.0
2016-Mar-20 22:32N 01°15' E 103°54'0 0.0
2016-Mar-20 21:17N 01°15' E 103°54'0 0.0
2016-Mar-20 19:11N 01°15' E 103°54'0 0.0
2016-Mar-20 17:26N 01°15' E 103°54'0 0.0
2016-Mar-20 14:26N 01°15' E 103°54'0 0.0
2016-Mar-20 12:32N 01°15' E 103°54'0 0.1
2016-Mar-20 09:29N 01°16' E 103°54'0 0.1
2016-Mar-20 06:32N 01°16' E 103°54'0 0.0
2016-Mar-20 04:20N 01°16' E 103°54'0 0.2
2016-Mar-20 03:33N 01°15' E 103°54'0 0.2
2016-Mar-20 02:33N 01°15' E 103°54'0 0.0
2016-Mar-20 01:33N 01°15' E 103°54'0 0.1
2016-Mar-20 00:33N 01°15' E 103°54'2 2.4
2016-Mar-19 23:31N 01°14' E 103°52'7 7.8
2016-Mar-19 22:33N 01°15' E 103°45'3 0.1
2016-Mar-17 21:29N 01°15' E 103°42'4 3.6
2016-Mar-17 20:29N 01°12' E 103°39'2 0.2
2016-Mar-17 09:04N 01°11' E 103°41'0 0.0
2016-Mar-17 08:23N 01°11' E 103°41'0 0.1
2016-Mar-17 07:33N 01°11' E 103°41'3 3.2
2016-Mar-17 06:28N 01°09' E 103°44'4 3.9
2016-Mar-17 05:33N 01°10' E 103°47'8 7.5
2016-Mar-17 04:33N 01°13' E 103°54'10 9.4
2016-Mar-17 03:32N 01°16' E 104°03'  
Track history (hours):
 
Tides and Currents Weather Stations Pressure Air Temp Water Temp Dewpoint Dewpoint Depression Visibility Wind Speed Wind Dir Waves Ship Positions

Aegean Pride

Last reported at 2016-Mar-25 07:31 UTC. Time now 2016-Apr-29 08:16 UTC.
Position N 02°30' E 101°36'.
Warning: this ship's position is 35 days out of date.

Length 244 m; draft 8.2 m.

Type: Ship. MMSI: 636011186.

Date/timePositionNaut miles runAvg speedWind from/ knotsBaromVisibWave heightAir tempDewpointWater temp
2016-Mar-25 07:31N 02°30' E 101°36'1614.6
2016-Mar-25 06:25N 02°20' E 101°49'2614.1
2016-Mar-25 04:33N 02°03' E 102°09'1312.5
2016-Mar-25 03:31N 01°56' E 102°20'1111.6
2016-Mar-25 02:33N 01°51' E 102°30'1111.1
2016-Mar-25 01:32N 01°46' E 102°40'7512.5
2016-Mar-24 19:33N 01°09' E 103°45'1111.4
2016-Mar-24 18:33N 01°14' E 103°55'9 9.2
2016-Mar-24 17:33N 01°16' E 104°04'  
2016-Mar-22 04:33N 01°15' E 104°03'9 8.8
2016-Mar-22 03:33N 01°15' E 103°54'1 0.6
2016-Mar-22 02:25N 01°15' E 103°54'0 0.1
2016-Mar-22 01:25N 01°15' E 103°54'0 0.0
2016-Mar-22 00:19N 01°15' E 103°54'0 0.0
2016-Mar-21 23:28N 01°15' E 103°54'0 0.0
2016-Mar-21 22:31N 01°15' E 103°54'0 0.1
2016-Mar-21 21:28N 01°15' E 103°54'0 0.0
2016-Mar-21 20:31N 01°15' E 103°54'0 0.0
2016-Mar-21 19:19N 01°15' E 103°54'0 0.1
2016-Mar-21 18:31N 01°15' E 103°54'0 0.0
2016-Mar-21 17:31N 01°15' E 103°54'0 0.0
2016-Mar-21 15:07N 01°15' E 103°54'0 0.0
2016-Mar-21 14:25N 01°15' E 103°54'0 0.0
2016-Mar-21 11:19N 01°15' E 103°54'0 0.2
2016-Mar-21 10:25N 01°15' E 103°54'0 0.1
2016-Mar-21 08:04N 01°16' E 103°54'0 0.0
2016-Mar-21 06:31N 01°16' E 103°54'0 0.0
2016-Mar-21 03:19N 01°15' E 103°54'0 0.1
2016-Mar-21 02:25N 01°15' E 103°54'0 0.0
2016-Mar-20 22:32N 01°15' E 103°54'0 0.0
2016-Mar-20 21:17N 01°15' E 103°54'0 0.0
2016-Mar-20 19:11N 01°15' E 103°54'0 0.0
2016-Mar-20 17:26N 01°15' E 103°54'0 0.0
2016-Mar-20 14:26N 01°15' E 103°54'0 0.0
2016-Mar-20 12:32N 01°15' E 103°54'0 0.1
2016-Mar-20 09:29N 01°16' E 103°54'0 0.1
2016-Mar-20 06:32N 01°16' E 103°54'0 0.0
2016-Mar-20 04:20N 01°16' E 103°54'0 0.2
2016-Mar-20 03:33N 01°15' E 103°54'0 0.2
2016-Mar-20 02:33N 01°15' E 103°54'0 0.0
2016-Mar-20 01:33N 01°15' E 103°54'0 0.1
2016-Mar-20 00:33N 01°15' E 103°54'2 2.4
2016-Mar-19 23:31N 01°14' E 103°52'7 7.8
2016-Mar-19 22:33N 01°15' E 103°45'3 0.1
2016-Mar-17 21:29N 01°15' E 103°42'4 3.6
2016-Mar-17 20:29N 01°12' E 103°39'2 0.2
2016-Mar-17 09:04N 01°11' E 103°41'0 0.0
2016-Mar-17 08:23N 01°11' E 103°41'0 0.1
2016-Mar-17 07:33N 01°11' E 103°41'3 3.2
2016-Mar-17 06:28N 01°09' E 103°44'4 3.9
2016-Mar-17 05:33N 01°10' E 103°47'8 7.5
2016-Mar-17 04:33N 01°13' E 103°54'10 9.4
2016-Mar-17 03:32N 01°16' E 104°03'  

Dump ship's entire track history